createdAt,value
2018-09-01T00:02:47.201Z,59.70
2018-09-01T00:05:50.142Z,59.90
2018-09-01T00:08:53.150Z,59.70
2018-09-01T00:11:56.299Z,59.80
2018-09-01T00:14:59.375Z,59.70
2018-09-01T00:18:02.338Z,59.80
2018-09-01T00:21:05.395Z,60.50
2018-09-01T00:24:09.228Z,59.90
2018-09-01T00:27:14.441Z,60.70
2018-09-01T00:30:17.542Z,60.20
2018-09-01T00:33:20.600Z,60.00
2018-09-01T00:36:23.589Z,59.90
2018-09-01T00:39:26.759Z,59.90
2018-09-01T00:42:29.759Z,59.90
2018-09-01T00:45:32.798Z,59.90
2018-09-01T00:48:35.863Z,59.90
2018-09-01T00:51:39.031Z,60.10
2018-09-01T00:54:42.231Z,60.50
2018-09-01T00:57:45.294Z,60.60
2018-09-01T01:00:48.430Z,60.60
2018-09-01T01:03:51.513Z,61.20
2018-09-01T01:06:54.572Z,60.30
2018-09-01T01:09:57.803Z,60.30
2018-09-01T01:13:05.301Z,60.20
2018-09-01T01:16:10.664Z,60.40
2018-09-01T01:19:14.604Z,60.40
2018-09-01T01:22:18.739Z,60.30
2018-09-01T01:25:21.774Z,60.60
2018-09-01T01:28:25.029Z,60.20
2018-09-01T01:31:28.070Z,60.40
2018-09-01T01:34:31.027Z,60.50
2018-09-01T01:37:35.289Z,60.50
2018-09-01T01:40:38.487Z,60.60
2018-09-01T01:43:41.601Z,60.60
2018-09-01T01:46:44.722Z,60.50
2018-09-01T01:49:47.833Z,60.80
2018-09-01T01:52:50.905Z,60.90
2018-09-01T01:55:54.050Z,60.60
2018-09-01T01:58:57.116Z,60.90
2018-09-01T02:02:00.330Z,60.80
2018-09-01T02:05:03.644Z,60.70
2018-09-01T02:08:06.718Z,60.50
2018-09-01T02:11:09.793Z,60.60
2018-09-01T02:14:12.834Z,61.10
2018-09-01T02:17:15.795Z,60.80
2018-09-01T02:20:18.789Z,61.00
2018-09-01T02:23:22.376Z,61.20
2018-09-01T02:26:25.445Z,60.70
2018-09-01T02:29:28.369Z,60.80
2018-09-01T02:32:31.477Z,60.90
2018-09-01T02:35:34.576Z,60.80
2018-09-01T02:38:37.685Z,60.70
2018-09-01T02:41:40.918Z,60.70
2018-09-01T02:44:43.971Z,60.70
2018-09-01T02:47:46.988Z,60.90
2018-09-01T02:50:49.947Z,61.10
2018-09-01T02:53:53.028Z,60.60
2018-09-01T02:56:55.962Z,61.70
2018-09-01T02:59:58.985Z,61.20
2018-09-01T03:03:01.915Z,61.30
2018-09-01T03:06:04.897Z,61.00
2018-09-01T03:09:08.134Z,61.20
2018-09-01T03:12:11.199Z,61.60
2018-09-01T03:15:14.311Z,61.40
2018-09-01T03:18:17.544Z,61.30
2018-09-01T03:21:20.576Z,61.10
2018-09-01T03:24:23.666Z,61.30
2018-09-01T03:27:26.799Z,61.40
2018-09-01T03:30:29.813Z,61.40
2018-09-01T03:33:32.821Z,61.80
2018-09-01T03:36:35.856Z,61.50
2018-09-01T03:39:39.158Z,61.20
2018-09-01T03:42:42.112Z,61.80
2018-09-01T03:45:45.051Z,61.60
2018-09-01T03:48:48.077Z,61.50
2018-09-01T03:51:51.043Z,61.30
2018-09-01T03:54:54.060Z,61.20
2018-09-01T03:57:57.139Z,61.50
2018-09-01T04:01:00.071Z,62.20
2018-09-01T04:04:03.058Z,61.80
2018-09-01T04:07:06.081Z,61.80
2018-09-01T04:10:13.331Z,62.00
2018-09-01T04:13:16.879Z,61.30
2018-09-01T04:16:19.919Z,61.20
2018-09-01T04:19:22.926Z,61.30
2018-09-01T04:22:25.911Z,61.30
2018-09-01T04:25:28.957Z,60.90
2018-09-01T04:28:35.882Z,61.00
2018-09-01T04:31:38.995Z,62.50
2018-09-01T04:34:42.048Z,61.70
2018-09-01T04:37:45.064Z,62.70
2018-09-01T04:40:49.043Z,62.20
2018-09-01T04:43:52.103Z,62.10
2018-09-01T04:46:55.403Z,61.80
2018-09-01T04:49:58.358Z,61.90
2018-09-01T04:53:01.303Z,62.60
2018-09-01T04:56:04.290Z,62.00
2018-09-01T04:59:07.276Z,62.10
2018-09-01T05:02:10.310Z,62.20
2018-09-01T05:05:21.256Z,62.10
2018-09-01T05:08:26.110Z,62.00
2018-09-01T05:11:30.608Z,62.30
2018-09-01T05:14:35.112Z,62.80
2018-09-01T05:17:39.334Z,62.40
2018-09-01T05:20:43.641Z,62.20
2018-09-01T05:23:48.169Z,62.10
2018-09-01T05:26:52.776Z,63.10
2018-09-01T05:29:55.907Z,62.60
2018-09-01T05:32:59.403Z,62.70
2018-09-01T05:36:03.514Z,62.50
2018-09-01T05:39:08.555Z,62.40
2018-09-01T05:42:11.475Z,62.40
2018-09-01T05:45:15.451Z,62.80
2018-09-01T05:48:21.292Z,62.70
2018-09-01T05:51:24.212Z,63.00
2018-09-01T05:54:28.312Z,63.00
2018-09-01T05:57:34.121Z,62.90
2018-09-01T06:00:42.927Z,63.30
2018-09-01T06:03:46.625Z,63.70
2018-09-01T06:06:55.505Z,63.60
2018-09-01T06:10:00.853Z,63.70
2018-09-01T06:13:06.705Z,64.10
2018-09-01T06:16:12.102Z,63.70
2018-09-01T06:19:18.278Z,64.00
2018-09-01T06:22:22.914Z,64.10
2018-09-01T06:25:30.179Z,64.30
2018-09-01T06:28:39.605Z,64.40
2018-09-01T06:32:08.367Z,64.30
2018-09-01T06:35:13.286Z,64.50
2018-09-01T06:38:16.959Z,64.90
2018-09-01T06:41:20.094Z,64.80
2018-09-01T06:44:23.188Z,65.50
2018-09-01T06:47:26.171Z,65.50
2018-09-01T06:50:29.383Z,66.00
2018-09-01T06:53:32.339Z,66.20
2018-09-01T06:56:35.443Z,67.50
2018-09-01T06:59:38.430Z,66.70
2018-09-01T07:02:41.371Z,66.80
2018-09-01T07:05:44.361Z,67.00
2018-09-01T07:08:47.441Z,67.20
2018-09-01T07:11:50.526Z,67.40
2018-09-01T07:14:53.529Z,67.80
2018-09-01T07:17:56.681Z,67.90
2018-09-01T07:20:59.633Z,68.10
2018-09-01T07:24:02.805Z,68.10
2018-09-01T07:27:05.881Z,68.50
2018-09-01T07:30:11.455Z,68.10
2018-09-01T07:33:14.508Z,68.10
2018-09-01T07:36:17.727Z,68.30
2018-09-01T07:39:20.843Z,68.60
2018-09-01T07:42:30.654Z,68.20
2018-09-01T07:45:33.671Z,68.20
2018-09-01T07:48:36.713Z,68.10
2018-09-01T07:51:39.682Z,68.00
2018-09-01T07:54:44.003Z,68.20
2018-09-01T07:57:46.978Z,67.30
2018-09-01T08:00:49.961Z,66.80
2018-09-01T08:03:53.662Z,67.30
2018-09-01T08:06:56.809Z,66.60
2018-09-01T08:09:59.701Z,66.80
2018-09-01T08:13:02.675Z,66.90
2018-09-01T08:16:05.655Z,65.70
2018-09-01T08:19:08.581Z,66.00
2018-09-01T08:22:11.525Z,65.50
2018-09-01T08:25:14.571Z,65.60
2018-09-01T08:28:17.604Z,64.60
2018-09-01T08:31:20.512Z,63.80
2018-09-01T08:34:23.469Z,61.20
2018-09-01T08:37:26.575Z,62.30
2018-09-01T08:40:29.852Z,60.70
2018-09-01T08:43:32.896Z,60.60
2018-09-01T08:46:35.840Z,62.80
2018-09-01T08:49:39.467Z,62.40
2018-09-01T08:52:43.590Z,61.70
2018-09-01T08:55:46.573Z,62.50
2018-09-01T08:58:49.749Z,61.90
2018-09-01T09:01:52.835Z,61.30
2018-09-01T09:04:55.787Z,61.30
2018-09-01T09:07:58.791Z,60.80
2018-09-01T09:11:01.848Z,59.80
2018-09-01T09:14:05.244Z,60.90
2018-09-01T09:17:08.362Z,61.60
2018-09-01T09:20:11.416Z,60.00
2018-09-01T09:23:14.550Z,59.10
2018-09-01T09:26:17.553Z,58.30
2018-09-01T09:29:20.652Z,56.00
2018-09-01T09:32:23.889Z,55.50
2018-09-01T09:35:26.950Z,54.50
2018-09-01T09:38:30.016Z,53.70
2018-09-01T09:41:34.233Z,53.40
2018-09-01T09:44:37.364Z,52.60
2018-09-01T09:47:40.710Z,52.50
2018-09-01T09:50:43.770Z,52.10
2018-09-01T09:53:46.965Z,51.60
2018-09-01T09:56:49.910Z,51.00
2018-09-01T09:59:52.849Z,51.50
2018-09-01T10:02:55.852Z,51.60
2018-09-01T10:05:58.866Z,50.80
2018-09-01T10:09:01.911Z,50.30
2018-09-01T10:12:04.876Z,49.70
2018-09-01T10:15:08.110Z,49.10
2018-09-01T10:18:11.076Z,50.30
2018-09-01T10:21:14.222Z,50.80
2018-09-01T10:24:17.237Z,49.20
2018-09-01T10:27:20.211Z,50.00
2018-09-01T10:30:23.187Z,50.20
2018-09-01T10:33:26.201Z,47.80
2018-09-01T10:36:29.275Z,51.60
2018-09-01T10:39:32.281Z,51.50
2018-09-01T10:42:35.346Z,51.80
2018-09-01T10:45:38.417Z,50.40
2018-09-01T10:48:42.489Z,51.60
2018-09-01T10:51:45.711Z,50.70
2018-09-01T10:54:48.715Z,51.50
2018-09-01T10:57:51.735Z,52.80
2018-09-01T11:00:54.712Z,54.40
2018-09-01T11:03:57.735Z,53.20
2018-09-01T11:07:00.672Z,48.70
2018-09-01T11:10:04.025Z,49.90
2018-09-01T11:13:07.036Z,50.80
2018-09-01T11:16:10.167Z,52.20
2018-09-01T11:19:13.365Z,51.40
2018-09-01T11:22:16.719Z,52.50
2018-09-01T11:25:19.953Z,50.10
2018-09-01T11:28:23.072Z,50.60
2018-09-01T11:31:26.175Z,51.80
2018-09-01T11:34:29.130Z,51.90
2018-09-01T11:37:33.265Z,52.80
2018-09-01T11:40:36.422Z,52.90
2018-09-01T11:43:39.520Z,51.20
2018-09-01T11:46:42.637Z,49.10
2018-09-01T11:49:45.676Z,47.90
2018-09-01T11:52:48.777Z,47.90
2018-09-01T11:55:51.784Z,48.50
2018-09-01T11:58:55.062Z,47.10
2018-09-01T12:01:58.182Z,45.70
2018-09-01T12:05:01.297Z,47.00
2018-09-01T12:08:04.815Z,49.30
2018-09-01T12:11:08.151Z,48.90
2018-09-01T12:14:11.451Z,47.50
2018-09-01T12:17:14.765Z,47.10
2018-09-01T12:20:17.947Z,47.40
2018-09-01T12:23:21.199Z,47.40
2018-09-01T12:26:24.475Z,46.10
2018-09-01T12:29:27.598Z,47.00
2018-09-01T12:32:30.625Z,45.50
2018-09-01T12:35:34.875Z,45.80
2018-09-01T12:38:38.223Z,46.20
2018-09-01T12:41:41.348Z,47.70
2018-09-01T12:44:44.418Z,48.40
2018-09-01T12:47:48.218Z,48.40
2018-09-01T12:50:51.581Z,48.20
2018-09-01T12:53:54.594Z,46.60
2018-09-01T12:56:57.826Z,45.50
2018-09-01T13:00:00.807Z,46.50
2018-09-01T13:03:10.513Z,45.40
2018-09-01T13:06:13.513Z,46.50
2018-09-01T13:09:16.598Z,45.40
2018-09-01T13:12:19.676Z,44.90
2018-09-01T13:15:22.790Z,45.40
2018-09-01T13:18:25.790Z,44.70
2018-09-01T13:21:28.935Z,45.50
2018-09-01T13:24:31.878Z,43.90
2018-09-01T13:27:34.821Z,44.90
2018-09-01T13:30:37.763Z,43.30
2018-09-01T13:33:40.676Z,45.90
2018-09-01T13:36:43.667Z,46.40
2018-09-01T13:39:46.731Z,45.50
2018-09-01T13:42:49.841Z,48.00
2018-09-01T13:45:53.052Z,48.90
2018-09-01T13:48:56.185Z,48.70
2018-09-01T13:51:59.801Z,46.60
2018-09-01T13:55:03.847Z,46.70
2018-09-01T13:58:06.906Z,45.00
2018-09-01T14:01:10.028Z,44.80
2018-09-01T14:04:13.042Z,41.90
2018-09-01T14:07:16.133Z,42.20
2018-09-01T14:10:19.230Z,42.70
2018-09-01T14:13:22.305Z,44.50
2018-09-01T14:16:25.338Z,41.40
2018-09-01T14:19:28.360Z,43.50
2018-09-01T14:22:32.467Z,43.30
2018-09-01T14:25:35.604Z,43.80
2018-09-01T14:28:38.577Z,42.70
2018-09-01T14:31:41.566Z,44.00
2018-09-01T14:34:44.520Z,44.10
2018-09-01T14:37:47.621Z,45.50
2018-09-01T14:40:50.687Z,47.40
2018-09-01T14:43:53.901Z,47.20
2018-09-01T14:46:56.970Z,47.30
2018-09-01T14:49:59.911Z,46.90
2018-09-01T14:53:03.302Z,47.40
2018-09-01T14:56:06.532Z,45.40
2018-09-01T14:59:09.821Z,43.70
2018-09-01T15:02:12.981Z,42.90
2018-09-01T15:05:16.187Z,41.70
2018-09-01T15:08:19.242Z,41.50
2018-09-01T15:11:22.299Z,42.80
2018-09-01T15:14:25.286Z,42.00
2018-09-01T15:17:28.312Z,43.40
2018-09-01T15:20:31.346Z,44.00
2018-09-01T15:23:34.306Z,43.60
2018-09-01T15:26:37.204Z,44.80
2018-09-01T15:29:40.143Z,44.60
2018-09-01T15:32:43.122Z,45.30
2018-09-01T15:35:46.203Z,47.70
2018-09-01T15:38:49.372Z,48.60
2018-09-01T15:41:52.425Z,48.70
2018-09-01T15:45:02.188Z,47.60
2018-09-01T15:48:05.198Z,48.10
2018-09-01T15:51:08.184Z,48.20
2018-09-01T15:54:11.185Z,46.60
2018-09-01T15:57:14.112Z,47.60
2018-09-01T16:00:17.297Z,46.40
2018-09-01T16:03:20.515Z,45.90
2018-09-01T16:06:23.675Z,46.70
2018-09-01T16:09:26.761Z,46.50
2018-09-01T16:12:29.896Z,50.80
2018-09-01T16:15:32.848Z,46.60
2018-09-01T16:18:35.806Z,47.20
2018-09-01T16:21:38.778Z,47.50
2018-09-01T16:24:41.835Z,47.50
2018-09-01T16:27:44.673Z,48.40
2018-09-01T16:30:47.696Z,49.30
2018-09-01T16:33:50.850Z,48.90
2018-09-01T16:36:53.939Z,48.70
2018-09-01T16:39:57.026Z,48.00
2018-09-01T16:43:00.100Z,50.20
2018-09-01T16:46:02.999Z,49.30
2018-09-01T16:49:05.909Z,49.20
2018-09-01T16:52:08.921Z,49.00
2018-09-01T16:55:11.814Z,50.00
2018-09-01T16:58:14.741Z,51.90
2018-09-01T17:01:17.761Z,51.40
2018-09-01T17:04:20.929Z,51.30
2018-09-01T17:07:24.278Z,50.20
2018-09-01T17:10:27.392Z,49.00
2018-09-01T17:13:30.336Z,50.90
2018-09-01T17:16:33.326Z,49.80
2018-09-01T17:19:36.281Z,50.50
2018-09-01T17:22:39.200Z,50.40
2018-09-01T17:25:42.190Z,50.70
2018-09-01T17:28:45.156Z,51.70
2018-09-01T17:31:48.225Z,50.90
2018-09-01T17:34:51.469Z,49.90
2018-09-01T17:37:54.493Z,51.70
2018-09-01T17:40:57.746Z,53.00
2018-09-01T17:44:00.626Z,54.70
2018-09-01T17:47:03.532Z,55.80
2018-09-01T17:50:06.583Z,56.30
2018-09-01T17:53:09.503Z,56.60
2018-09-01T17:56:12.412Z,56.70
2018-09-01T17:59:15.497Z,57.10
2018-09-01T18:02:18.883Z,57.30
2018-09-01T18:05:21.819Z,57.10
2018-09-01T18:08:24.836Z,57.20
2018-09-01T18:11:28.070Z,57.70
2018-09-01T18:14:31.109Z,57.00
2018-09-01T18:17:34.079Z,57.20
2018-09-01T18:23:46.752Z,57.00
2018-09-01T18:26:49.757Z,57.40
2018-09-01T18:29:52.777Z,57.30
2018-09-01T18:32:55.830Z,57.10
2018-09-01T18:35:59.098Z,57.60
2018-09-01T18:39:02.062Z,57.10
2018-09-01T18:42:05.070Z,57.20
2018-09-01T18:45:08.440Z,57.10
2018-09-01T18:48:11.397Z,56.90
2018-09-01T18:51:14.338Z,57.20
2018-09-01T18:54:17.559Z,57.10
2018-09-01T18:57:20.474Z,57.10
2018-09-01T19:00:23.472Z,57.20
2018-09-01T19:03:26.725Z,57.10
2018-09-01T19:06:29.703Z,57.10
2018-09-01T19:09:32.646Z,57.20
2018-09-01T19:12:35.633Z,57.30
2018-09-01T19:15:38.610Z,57.10
2018-09-01T19:18:41.540Z,57.00
2018-09-01T19:21:44.513Z,57.30
2018-09-01T19:24:47.808Z,57.20
2018-09-01T19:27:50.851Z,57.50
2018-09-01T19:30:53.825Z,57.40
2018-09-01T19:33:56.943Z,57.50
2018-09-01T19:36:59.958Z,57.50
2018-09-01T19:40:02.944Z,57.70
2018-09-01T19:43:06.036Z,57.80
2018-09-01T19:46:09.072Z,57.80
2018-09-01T19:49:11.977Z,57.70
2018-09-01T19:52:15.016Z,58.10
2018-09-01T19:55:17.997Z,57.90
2018-09-01T19:58:21.155Z,57.80
2018-09-01T20:01:24.318Z,57.60
2018-09-01T20:04:27.347Z,57.90
2018-09-01T20:07:30.271Z,58.00
2018-09-01T20:10:33.185Z,58.10
2018-09-01T20:13:36.118Z,58.00
2018-09-01T20:16:39.063Z,58.00
2018-09-01T20:19:42.001Z,58.10
2018-09-01T20:22:44.889Z,58.10
2018-09-01T20:25:47.972Z,58.10
2018-09-01T20:28:51.018Z,58.40
2018-09-01T20:31:54.162Z,58.50
2018-09-01T20:35:02.677Z,58.80
2018-09-01T20:38:05.990Z,58.60
2018-09-01T20:41:08.801Z,58.50
2018-09-01T20:44:11.761Z,58.50
2018-09-01T20:47:14.687Z,58.70
2018-09-01T20:50:17.825Z,58.60
2018-09-01T20:53:20.993Z,58.60
2018-09-01T20:56:24.094Z,58.50
2018-09-01T20:59:27.245Z,58.60
2018-09-01T21:02:30.217Z,58.80
2018-09-01T21:05:33.145Z,59.10
2018-09-01T21:08:36.110Z,58.80
2018-09-01T21:11:39.703Z,58.50
2018-09-01T21:14:42.636Z,58.80
2018-09-01T21:17:45.646Z,58.80
2018-09-01T21:20:48.676Z,59.00
2018-09-01T21:23:51.668Z,59.10
2018-09-01T21:26:54.715Z,59.00
2018-09-01T21:29:57.901Z,59.30
2018-09-01T21:33:00.831Z,59.10
2018-09-01T21:36:03.827Z,59.20
2018-09-01T21:39:07.380Z,59.10
2018-09-01T21:42:10.336Z,59.30
2018-09-01T21:45:13.220Z,59.30
2018-09-01T21:48:16.246Z,59.20
2018-09-01T21:51:19.257Z,59.20
2018-09-01T21:54:22.275Z,59.40
2018-09-01T21:57:25.284Z,59.30
2018-09-01T22:00:28.394Z,59.60
2018-09-01T22:03:43.811Z,59.50
2018-09-01T22:06:47.443Z,59.20
2018-09-01T22:09:51.818Z,59.20
2018-09-01T22:12:54.787Z,59.40
2018-09-01T22:15:58.004Z,59.40
2018-09-01T22:19:00.900Z,59.70
2018-09-01T22:22:03.850Z,59.70
2018-09-01T22:25:06.816Z,59.70
2018-09-01T22:28:09.699Z,59.70
2018-09-01T22:31:12.606Z,59.90
2018-09-01T22:34:15.951Z,60.10
2018-09-01T22:37:18.950Z,60.30
2018-09-01T22:40:22.099Z,60.10
2018-09-01T22:43:25.139Z,60.30
2018-09-01T22:46:28.317Z,60.00
2018-09-01T22:49:31.297Z,60.20
2018-09-01T22:52:34.222Z,60.70
2018-09-01T22:55:37.152Z,60.90
2018-09-01T22:58:40.103Z,61.40
2018-09-01T23:01:43.046Z,61.00
2018-09-01T23:04:46.883Z,61.20
2018-09-01T23:07:50.015Z,61.30
2018-09-01T23:10:53.181Z,61.60
2018-09-01T23:13:56.441Z,61.60
2018-09-01T23:16:59.419Z,61.50
2018-09-01T23:20:02.394Z,61.40
2018-09-01T23:23:05.733Z,61.40
2018-09-01T23:26:08.610Z,61.80
2018-09-01T23:29:11.497Z,62.20
2018-09-01T23:32:14.446Z,62.10
2018-09-01T23:35:17.475Z,62.00
2018-09-01T23:38:20.479Z,62.30
2018-09-01T23:41:23.411Z,62.50
2018-09-01T23:44:26.450Z,62.70
2018-09-01T23:47:30.175Z,63.20
2018-09-01T23:50:33.143Z,63.20
2018-09-01T23:53:36.124Z,63.00
2018-09-01T23:56:39.045Z,63.00
2018-09-01T23:59:42.012Z,62.60
